createdAt,value
2023-04-17T00:02:04.316Z,12.07
2023-04-17T00:04:32.221Z,12.68
2023-04-17T00:07:03.365Z,12.57
2023-04-17T00:09:31.324Z,11.43
2023-04-17T00:11:58.708Z,9.93
2023-04-17T00:14:25.932Z,12.88
2023-04-17T00:16:53.356Z,11.15
2023-04-17T00:19:20.731Z,12.00
2023-04-17T00:21:47.963Z,12.60
2023-04-17T00:24:15.208Z,12.52
2023-04-17T00:26:42.499Z,12.63
2023-04-17T00:29:09.928Z,12.68
2023-04-17T00:31:37.340Z,13.52
2023-04-17T00:34:04.720Z,12.75
2023-04-17T00:36:32.421Z,10.75
2023-04-17T00:38:59.909Z,10.80
2023-04-17T00:41:27.191Z,12.43
2023-04-17T00:43:54.496Z,11.70
2023-04-17T00:46:22.137Z,12.15
2023-04-17T00:48:49.771Z,12.23
2023-04-17T00:51:17.151Z,11.35
2023-04-17T00:53:44.960Z,12.80
2023-04-17T00:56:12.244Z,13.07
2023-04-17T00:58:43.823Z,11.73
2023-04-17T01:01:11.737Z,11.18
2023-04-17T01:03:39.283Z,12.32
2023-04-17T01:06:06.920Z,12.77
2023-04-17T01:08:42.502Z,11.83
2023-04-17T01:11:11.493Z,11.80
2023-04-17T01:13:50.393Z,11.68
2023-04-17T01:16:19.110Z,10.25
2023-04-17T01:18:49.568Z,10.68
2023-04-17T01:21:16.971Z,10.07
2023-04-17T01:23:53.852Z,11.02
2023-04-17T01:26:24.058Z,11.52
2023-04-17T01:28:57.360Z,11.23
2023-04-17T01:31:29.150Z,9.98
2023-04-17T01:33:56.540Z,10.48
2023-04-17T01:36:23.855Z,10.60
2023-04-17T01:38:51.076Z,11.07
2023-04-17T01:41:18.383Z,9.52
2023-04-17T01:43:47.574Z,11.40
2023-04-17T01:46:14.869Z,10.13
2023-04-17T01:48:42.235Z,9.50
2023-04-17T01:51:09.428Z,10.30
2023-04-17T01:53:39.403Z,10.00
2023-04-17T01:56:07.388Z,10.48
2023-04-17T01:58:34.711Z,10.75
2023-04-17T02:01:01.934Z,9.90
2023-04-17T02:03:29.366Z,9.50
2023-04-17T02:05:56.770Z,10.50
2023-04-17T02:08:25.017Z,10.45
2023-04-17T02:10:52.750Z,10.18
2023-04-17T02:13:19.962Z,11.18
2023-04-17T02:15:47.471Z,11.40
2023-04-17T02:18:14.749Z,9.53
2023-04-17T02:20:42.102Z,10.70
2023-04-17T02:23:09.609Z,11.45
2023-04-17T02:25:36.852Z,10.67
2023-04-17T02:28:04.783Z,10.80
2023-04-17T02:30:32.258Z,10.27
2023-04-17T02:32:59.564Z,9.53
2023-04-17T02:35:30.907Z,11.38
2023-04-17T02:37:58.214Z,11.50
2023-04-17T02:40:25.451Z,11.32
2023-04-17T02:42:52.656Z,11.30
2023-04-17T02:45:19.938Z,10.77
2023-04-17T02:47:48.229Z,9.48
2023-04-17T02:50:15.549Z,11.13
2023-04-17T02:52:42.803Z,11.75
2023-04-17T02:55:10.385Z,11.65
2023-04-17T02:57:37.609Z,10.32
2023-04-17T03:00:08.787Z,10.50
2023-04-17T03:02:36.522Z,10.13
2023-04-17T03:05:04.269Z,10.80
2023-04-17T03:07:31.785Z,11.50
2023-04-17T03:09:59.453Z,10.00
2023-04-17T03:12:26.631Z,10.85
2023-04-17T03:14:53.857Z,10.40
2023-04-17T03:17:21.136Z,10.52
2023-04-17T03:19:48.433Z,10.27
2023-04-17T03:22:15.652Z,8.18
2023-04-17T03:24:43.046Z,9.80
2023-04-17T03:27:10.332Z,9.95
2023-04-17T03:29:37.668Z,9.30
2023-04-17T03:32:05.171Z,8.10
2023-04-17T03:34:32.552Z,8.43
2023-04-17T03:36:59.799Z,9.55
2023-04-17T03:39:27.119Z,7.70
2023-04-17T03:41:54.505Z,9.40
2023-04-17T03:44:21.724Z,9.13
2023-04-17T03:46:49.001Z,9.07
2023-04-17T03:49:16.271Z,8.85
2023-04-17T03:51:43.556Z,8.93
2023-04-17T03:54:10.926Z,9.35
2023-04-17T03:56:38.145Z,8.25
2023-04-17T03:59:06.013Z,7.22
2023-04-17T04:01:33.329Z,8.93
2023-04-17T04:04:00.725Z,9.68
2023-04-17T04:06:29.919Z,9.03
2023-04-17T04:08:57.401Z,8.82
2023-04-17T04:11:24.696Z,8.93
2023-04-17T04:13:51.932Z,9.40
2023-04-17T04:16:19.262Z,7.15
2023-04-17T04:18:46.569Z,9.13
2023-04-17T04:21:13.906Z,8.30
2023-04-17T04:23:41.455Z,7.60
2023-04-17T04:26:08.705Z,8.95
2023-04-17T04:28:36.031Z,8.20
2023-04-17T04:31:03.984Z,6.65
2023-04-17T04:33:31.236Z,7.75
2023-04-17T04:36:01.096Z,8.15
2023-04-17T04:38:32.572Z,6.55
2023-04-17T04:41:06.249Z,8.65
2023-04-17T04:43:34.218Z,7.28
2023-04-17T04:46:01.481Z,8.32
2023-04-17T04:48:29.036Z,7.53
2023-04-17T04:50:56.711Z,8.90
2023-04-17T04:53:24.641Z,8.65
2023-04-17T04:55:51.885Z,9.07
2023-04-17T04:58:19.128Z,8.52
2023-04-17T05:00:46.600Z,7.93
2023-04-17T05:03:14.123Z,7.40
2023-04-17T05:05:43.342Z,6.38
2023-04-17T05:08:10.557Z,8.30
2023-04-17T05:10:37.910Z,8.07
2023-04-17T05:13:05.249Z,8.38
2023-04-17T05:15:32.479Z,8.10
2023-04-17T05:17:59.764Z,7.20
2023-04-17T05:20:27.157Z,8.27
2023-04-17T05:22:54.427Z,8.40
2023-04-17T05:25:22.635Z,7.95
2023-04-17T05:27:49.888Z,7.85
2023-04-17T05:30:17.252Z,8.55
2023-04-17T05:32:44.602Z,7.88
2023-04-17T05:35:11.874Z,7.30
2023-04-17T05:37:39.040Z,7.63
2023-04-17T05:40:07.291Z,7.88
2023-04-17T05:42:35.180Z,8.18
2023-04-17T05:45:02.549Z,8.52
2023-04-17T05:47:29.804Z,8.20
2023-04-17T05:50:00.107Z,8.43
2023-04-17T05:52:27.376Z,9.30
2023-04-17T05:54:54.608Z,8.52
2023-04-17T05:57:21.807Z,9.00
2023-04-17T05:59:49.337Z,8.93
2023-04-17T06:02:17.405Z,8.30
2023-04-17T06:04:45.044Z,9.13
2023-04-17T06:07:12.689Z,9.50
2023-04-17T06:09:41.035Z,9.43
2023-04-17T06:14:42.878Z,9.18
2023-04-17T06:17:10.470Z,10.80
2023-04-17T06:19:37.841Z,10.13
2023-04-17T06:22:05.320Z,9.57
2023-04-17T06:24:32.794Z,9.63
2023-04-17T06:26:59.960Z,9.85
2023-04-17T06:29:27.216Z,8.88
2023-04-17T06:31:54.600Z,9.48
2023-04-17T06:34:22.285Z,9.50
2023-04-17T06:36:49.638Z,9.10
2023-04-17T06:39:17.081Z,10.32
2023-04-17T06:41:45.463Z,9.30
2023-04-17T06:44:12.629Z,10.73
2023-04-17T06:46:39.909Z,9.90
2023-04-17T06:49:07.093Z,9.52
2023-04-17T06:51:34.364Z,10.73
2023-04-17T06:54:01.579Z,10.23
2023-04-17T06:56:28.859Z,11.20
2023-04-17T06:58:57.956Z,9.75
2023-04-17T07:01:25.350Z,10.88
2023-04-17T07:03:52.682Z,10.65
2023-04-17T07:06:20.184Z,10.68
2023-04-17T07:08:47.385Z,10.23
2023-04-17T07:11:14.609Z,10.20
2023-04-17T07:13:41.885Z,11.27
2023-04-17T07:16:09.221Z,12.63
2023-04-17T07:18:36.573Z,9.45
2023-04-17T07:21:04.065Z,11.60
2023-04-17T07:23:31.443Z,10.35
2023-04-17T07:25:58.749Z,12.50
2023-04-17T07:28:26.123Z,11.50
2023-04-17T07:30:55.103Z,11.73
2023-04-17T07:33:22.337Z,12.02
2023-04-17T07:35:49.605Z,12.18
2023-04-17T07:38:17.097Z,13.32
2023-04-17T07:40:44.348Z,11.95
2023-04-17T07:43:11.655Z,12.55
2023-04-17T07:45:41.157Z,12.73
2023-04-17T07:48:09.664Z,12.77
2023-04-17T07:50:36.964Z,12.77
2023-04-17T07:53:04.174Z,11.63
2023-04-17T07:55:31.473Z,12.90
2023-04-17T07:58:01.671Z,12.90
2023-04-17T08:00:29.475Z,12.68
2023-04-17T08:02:58.329Z,12.30
2023-04-17T08:05:26.225Z,11.80
2023-04-17T08:07:53.507Z,11.75
2023-04-17T08:10:21.037Z,12.73
2023-04-17T08:12:48.469Z,13.52
2023-04-17T08:15:15.752Z,11.13
2023-04-17T08:17:43.399Z,10.32
2023-04-17T08:20:11.692Z,12.00
2023-04-17T08:22:44.254Z,12.20
2023-04-17T08:25:12.999Z,12.43
2023-04-17T08:27:42.540Z,12.13
2023-04-17T08:30:15.000Z,10.90
2023-04-17T08:32:47.787Z,11.02
2023-04-17T08:35:17.319Z,11.63
2023-04-17T08:37:46.955Z,11.95
2023-04-17T08:40:16.110Z,10.30
2023-04-17T08:42:43.801Z,11.25
2023-04-17T08:45:13.950Z,10.95
2023-04-17T08:47:43.132Z,7.90
2023-04-17T08:50:18.342Z,9.75
2023-04-17T08:52:51.214Z,10.65
2023-04-17T08:55:29.151Z,12.13
2023-04-17T08:58:04.867Z,8.23
2023-04-17T09:00:38.640Z,11.07
2023-04-17T09:03:09.657Z,12.63
2023-04-17T09:05:46.137Z,10.73
2023-04-17T09:08:24.108Z,9.98
2023-04-17T09:10:54.838Z,10.85
2023-04-17T09:13:27.328Z,11.35
2023-04-17T09:16:12.920Z,10.55
2023-04-17T09:18:48.385Z,10.68
2023-04-17T09:21:19.505Z,10.15
2023-04-17T09:23:56.382Z,9.88
2023-04-17T09:26:28.133Z,10.18
2023-04-17T09:29:11.141Z,9.10
2023-04-17T09:31:41.525Z,9.75
2023-04-17T09:34:16.694Z,8.95
2023-04-17T09:36:44.373Z,9.38
2023-04-17T09:39:24.496Z,10.53
2023-04-17T09:42:03.953Z,9.45
2023-04-17T09:44:31.762Z,8.70
2023-04-17T09:47:01.411Z,8.43
2023-04-17T09:49:52.882Z,9.15
2023-04-17T09:52:23.785Z,8.88
2023-04-17T09:54:53.798Z,8.48
2023-04-17T09:57:21.492Z,6.22
2023-04-17T09:59:49.281Z,7.93
2023-04-17T10:02:20.074Z,9.45
2023-04-17T10:05:08.917Z,6.78
2023-04-17T10:07:37.070Z,8.77
2023-04-17T10:10:09.371Z,6.90
2023-04-17T10:12:40.055Z,8.93
2023-04-17T10:15:09.681Z,9.20
2023-04-17T10:17:37.268Z,8.27
2023-04-17T10:20:23.140Z,8.27
2023-04-17T10:22:54.816Z,8.23
2023-04-17T10:25:27.642Z,8.57
2023-04-17T10:27:58.593Z,6.38
2023-04-17T10:30:54.499Z,6.30
2023-04-17T10:33:27.281Z,5.15
2023-04-17T10:35:55.494Z,7.00
2023-04-17T10:41:09.491Z,7.05
2023-04-17T10:43:42.634Z,6.28
2023-04-17T10:46:14.686Z,7.43
2023-04-17T10:48:52.712Z,6.75
2023-04-17T10:51:23.736Z,6.82
2023-04-17T10:54:06.478Z,6.55
2023-04-17T10:56:49.282Z,7.10
2023-04-17T10:59:19.076Z,6.32
2023-04-17T11:01:49.457Z,6.32
2023-04-17T11:04:24.243Z,7.18
2023-04-17T11:06:55.631Z,6.78
2023-04-17T11:09:26.797Z,7.05
2023-04-17T11:11:54.407Z,7.00
2023-04-17T11:14:23.681Z,6.43
2023-04-17T11:16:52.477Z,5.75
2023-04-17T11:19:25.840Z,6.65
2023-04-17T11:21:58.866Z,6.68
2023-04-17T11:24:32.776Z,6.78
2023-04-17T11:27:03.479Z,7.00
2023-04-17T11:29:31.038Z,6.88
2023-04-17T11:32:00.940Z,5.38
2023-04-17T11:34:28.390Z,6.18
2023-04-17T11:37:00.580Z,6.40
2023-04-17T11:39:34.427Z,6.25
2023-04-17T11:42:05.272Z,5.35
2023-04-17T11:44:32.841Z,5.90
2023-04-17T11:47:01.780Z,5.75
2023-04-17T11:49:31.783Z,4.63
2023-04-17T11:52:04.754Z,4.90
2023-04-17T11:54:37.313Z,6.57
2023-04-17T11:57:14.272Z,6.70
2023-04-17T11:59:44.683Z,4.95
2023-04-17T12:02:16.671Z,6.05
2023-04-17T12:04:47.354Z,5.63
2023-04-17T12:07:24.783Z,5.88
2023-04-17T12:09:59.590Z,5.60
2023-04-17T12:12:26.993Z,5.65
2023-04-17T12:14:54.214Z,6.03
2023-04-17T12:17:21.642Z,5.95
2023-04-17T12:19:48.918Z,6.35
2023-04-17T12:22:16.390Z,4.55
2023-04-17T12:24:43.614Z,6.55
2023-04-17T12:27:11.044Z,7.03
2023-04-17T12:32:10.813Z,5.93
2023-04-17T12:34:38.299Z,5.78
2023-04-17T12:37:05.752Z,6.05
2023-04-17T12:39:33.424Z,6.07
2023-04-17T12:42:00.746Z,6.20
2023-04-17T12:44:27.973Z,5.93
2023-04-17T12:46:57.615Z,6.10
2023-04-17T12:49:24.906Z,5.82
2023-04-17T12:51:52.681Z,6.15
2023-04-17T12:54:19.925Z,5.28
2023-04-17T12:56:47.212Z,5.00
2023-04-17T12:59:14.402Z,6.30
2023-04-17T13:01:42.661Z,6.32
2023-04-17T13:04:10.185Z,5.53
2023-04-17T13:06:40.581Z,5.63
2023-04-17T13:09:07.805Z,5.95
2023-04-17T13:11:35.008Z,5.47
2023-04-17T13:14:02.249Z,5.97
2023-04-17T13:16:29.544Z,6.40
2023-04-17T13:19:05.730Z,6.53
2023-04-17T13:21:32.972Z,5.88
2023-04-17T13:24:00.483Z,5.70
2023-04-17T13:26:27.780Z,4.95
2023-04-17T13:28:54.973Z,5.15
2023-04-17T13:31:24.750Z,4.28
2023-04-17T13:33:51.997Z,7.50
2023-04-17T13:36:19.198Z,6.65
2023-04-17T13:38:46.448Z,5.25
2023-04-17T13:41:13.682Z,6.07
2023-04-17T13:43:40.929Z,5.93
2023-04-17T13:46:09.349Z,7.05
2023-04-17T13:51:03.818Z,6.13
2023-04-17T13:53:31.036Z,7.30
2023-04-17T13:55:58.301Z,6.63
2023-04-17T13:58:25.621Z,6.80
2023-04-17T14:01:01.615Z,7.47
2023-04-17T14:03:29.034Z,7.10
2023-04-17T14:05:56.681Z,7.63
2023-04-17T14:08:24.407Z,8.10
2023-04-17T14:10:51.606Z,7.93
2023-04-17T14:13:18.891Z,7.70
2023-04-17T14:15:47.646Z,7.50
2023-04-17T14:18:15.000Z,7.43
2023-04-17T14:20:42.346Z,6.38
2023-04-17T14:23:09.570Z,6.28
2023-04-17T14:25:38.316Z,7.60
2023-04-17T14:28:06.105Z,6.65
2023-04-17T14:30:35.298Z,6.25
2023-04-17T14:33:02.563Z,6.88
2023-04-17T14:35:30.039Z,8.13
2023-04-17T14:37:57.337Z,9.00
2023-04-17T14:40:24.551Z,8.73
2023-04-17T14:42:54.611Z,8.60
2023-04-17T14:45:22.285Z,9.10
2023-04-17T14:47:49.701Z,9.15
2023-04-17T14:50:17.122Z,8.68
2023-04-17T14:52:44.300Z,8.75
2023-04-17T14:55:12.375Z,9.60
2023-04-17T14:57:39.910Z,10.02
2023-04-17T15:00:09.095Z,9.55
2023-04-17T15:02:39.143Z,12.13
2023-04-17T15:05:07.846Z,10.27
2023-04-17T15:07:35.785Z,11.23
2023-04-17T15:10:04.982Z,10.73
2023-04-17T15:12:32.203Z,12.77
2023-04-17T15:14:59.655Z,12.20
2023-04-17T15:17:26.939Z,12.15
2023-04-17T15:19:57.402Z,14.25
2023-04-17T15:22:27.419Z,13.73
2023-04-17T15:24:54.588Z,14.45
2023-04-17T15:27:21.826Z,14.45
2023-04-17T15:29:49.140Z,14.82
2023-04-17T15:32:16.639Z,14.88
2023-04-17T15:34:43.936Z,14.03
2023-04-17T15:37:12.085Z,14.93
2023-04-17T15:39:40.127Z,15.68
2023-04-17T15:42:09.525Z,14.63
2023-04-17T15:44:37.753Z,15.02
2023-04-17T15:47:06.721Z,14.90
2023-04-17T15:49:34.337Z,14.82
2023-04-17T15:52:01.858Z,14.68
2023-04-17T15:54:29.217Z,9.67
2023-04-17T15:56:57.045Z,7.57
2023-04-17T15:59:24.469Z,11.00
2023-04-17T16:01:53.137Z,10.95
2023-04-17T16:04:20.924Z,10.23
2023-04-17T16:06:48.314Z,8.60
2023-04-17T16:09:19.542Z,10.85
2023-04-17T16:11:48.599Z,11.00
2023-04-17T16:14:15.817Z,8.10
2023-04-17T16:16:43.065Z,10.10
2023-04-17T16:19:10.885Z,9.38
2023-04-17T16:21:38.626Z,9.15
2023-04-17T16:24:06.065Z,7.83
2023-04-17T16:26:33.289Z,9.30
2023-04-17T16:29:00.553Z,6.88
2023-04-17T16:31:28.302Z,9.55
2023-04-17T16:33:56.055Z,9.43
2023-04-17T16:36:23.489Z,9.57
2023-04-17T16:38:50.774Z,9.80
2023-04-17T16:41:18.745Z,10.60
2023-04-17T16:43:46.271Z,11.07
2023-04-17T16:46:24.081Z,9.77
2023-04-17T16:48:59.193Z,9.85
2023-04-17T16:51:27.109Z,10.55
2023-04-17T16:53:54.935Z,10.63
2023-04-17T16:56:22.267Z,9.40
2023-04-17T16:58:49.499Z,7.18
2023-04-17T17:01:16.797Z,10.15
2023-04-17T17:03:45.150Z,9.52
2023-04-17T17:08:41.857Z,10.30
2023-04-17T17:11:09.146Z,9.25
2023-04-17T17:13:36.498Z,9.32
2023-04-17T17:16:03.763Z,10.77
2023-04-17T17:18:30.976Z,6.63
2023-04-17T17:21:01.230Z,10.38
2023-04-17T17:23:28.481Z,7.93
2023-04-17T17:25:55.670Z,11.32
2023-04-17T17:28:22.929Z,10.45
2023-04-17T17:30:50.233Z,10.55
2023-04-17T17:33:17.421Z,9.85
2023-04-17T17:35:44.609Z,9.77
2023-04-17T17:38:12.176Z,8.85
2023-04-17T17:40:39.597Z,9.65
2023-04-17T17:43:06.919Z,9.90
2023-04-17T17:45:34.146Z,10.13
2023-04-17T17:48:01.341Z,7.40
2023-04-17T17:50:28.659Z,11.68
2023-04-17T17:52:58.095Z,9.35
2023-04-17T17:55:26.019Z,9.73
2023-04-17T17:57:53.283Z,8.65
2023-04-17T18:00:20.910Z,10.88
2023-04-17T18:02:48.325Z,8.98
2023-04-17T18:05:15.746Z,9.93
2023-04-17T18:07:43.240Z,10.07
2023-04-17T18:10:11.053Z,9.60
2023-04-17T18:12:38.250Z,9.95
2023-04-17T18:15:06.489Z,10.05
2023-04-17T18:17:33.733Z,7.85
2023-04-17T18:20:01.066Z,9.85
2023-04-17T18:22:29.481Z,8.80
2023-04-17T18:24:56.726Z,9.30
2023-04-17T18:27:23.957Z,7.85
2023-04-17T18:29:51.117Z,9.25
2023-04-17T18:32:18.801Z,9.68
2023-04-17T18:34:49.202Z,10.15
2023-04-17T18:37:18.154Z,9.73
2023-04-17T18:39:45.748Z,9.55
2023-04-17T18:42:12.970Z,9.18
2023-04-17T18:44:40.244Z,9.45
2023-04-17T18:47:07.713Z,8.80
2023-04-17T18:49:34.972Z,8.50
2023-04-17T18:52:03.341Z,7.97
2023-04-17T18:54:30.683Z,9.27
2023-04-17T18:56:58.185Z,8.63
2023-04-17T18:59:28.053Z,8.35
2023-04-17T19:01:55.465Z,8.23
2023-04-17T19:04:22.719Z,7.82
2023-04-17T19:06:49.985Z,8.13
2023-04-17T19:09:17.248Z,7.75
2023-04-17T19:11:44.506Z,8.00
2023-04-17T19:14:11.805Z,8.05
2023-04-17T19:16:39.368Z,7.27
2023-04-17T19:19:08.383Z,7.13
2023-04-17T19:21:36.894Z,7.35
2023-04-17T19:26:31.513Z,7.65
2023-04-17T19:28:59.724Z,7.00
2023-04-17T19:31:26.980Z,7.60
2023-04-17T19:33:56.201Z,7.43
2023-04-17T19:36:23.917Z,7.88
2023-04-17T19:38:54.423Z,7.30
2023-04-17T19:41:22.127Z,7.63
2023-04-17T19:43:51.490Z,7.05
2023-04-17T19:46:20.874Z,8.02
2023-04-17T19:48:49.650Z,7.30
2023-04-17T19:51:16.992Z,8.68
2023-04-17T19:53:46.472Z,8.00
2023-04-17T19:56:13.879Z,7.88
2023-04-17T19:58:42.054Z,8.40
2023-04-17T20:01:09.337Z,7.07
2023-04-17T20:03:39.278Z,8.48
2023-04-17T20:06:08.769Z,5.03
2023-04-17T20:08:36.142Z,8.57
2023-04-17T20:11:04.592Z,8.45
2023-04-17T20:13:31.993Z,8.13
2023-04-17T20:15:59.365Z,7.85
2023-04-17T20:18:27.295Z,8.13
2023-04-17T20:20:54.463Z,7.78
2023-04-17T20:23:22.272Z,8.15
2023-04-17T20:25:50.480Z,8.45
2023-04-17T20:28:17.724Z,7.90
2023-04-17T20:30:44.992Z,7.90
2023-04-17T20:33:12.381Z,7.72
2023-04-17T20:35:39.616Z,7.75
2023-04-17T20:38:06.911Z,7.82
2023-04-17T20:40:34.165Z,8.05
2023-04-17T20:43:01.400Z,8.15
2023-04-17T20:45:28.668Z,7.70
2023-04-17T20:47:57.273Z,8.45
2023-04-17T20:50:25.490Z,7.72
2023-04-17T20:52:52.837Z,7.22
2023-04-17T20:55:20.474Z,8.02
2023-04-17T20:57:47.894Z,8.23
2023-04-17T21:00:16.244Z,8.43
2023-04-17T21:02:46.320Z,7.07
2023-04-17T21:05:13.580Z,8.93
2023-04-17T21:07:40.781Z,8.18
2023-04-17T21:10:08.865Z,8.10
2023-04-17T21:12:36.079Z,8.55
2023-04-17T21:15:03.558Z,8.95
2023-04-17T21:17:30.750Z,8.90
2023-04-17T21:19:58.046Z,10.05
2023-04-17T21:22:25.405Z,8.73
2023-04-17T21:24:52.628Z,9.95
2023-04-17T21:27:19.868Z,9.35
2023-04-17T21:29:47.169Z,10.18
2023-04-17T21:32:14.389Z,10.45
2023-04-17T21:34:41.657Z,10.63
2023-04-17T21:37:08.877Z,10.80
2023-04-17T21:39:36.367Z,10.77
2023-04-17T21:42:03.661Z,10.77
2023-04-17T21:44:30.857Z,11.00
2023-04-17T21:46:58.110Z,10.45
2023-04-17T21:49:25.379Z,12.07
2023-04-17T21:51:52.590Z,11.70
2023-04-17T21:54:19.899Z,12.63
2023-04-17T21:56:47.138Z,12.85
2023-04-17T21:59:14.931Z,12.38
2023-04-17T22:01:42.384Z,12.13
2023-04-17T22:04:09.849Z,12.97
2023-04-17T22:06:37.526Z,12.73
2023-04-17T22:09:05.202Z,13.00
2023-04-17T22:11:32.596Z,12.23
2023-04-17T22:13:59.810Z,12.27
2023-04-17T22:16:27.159Z,13.35
2023-04-17T22:18:54.524Z,13.43
2023-04-17T22:21:59.469Z,12.10
2023-04-17T22:24:45.238Z,12.43
2023-04-17T22:28:08.793Z,12.35
2023-04-17T22:31:32.270Z,12.55
2023-04-17T22:34:36.708Z,12.75
2023-04-17T22:37:23.132Z,13.20
2023-04-17T22:40:27.734Z,13.38
2023-04-17T22:43:32.726Z,12.88
2023-04-17T22:45:59.932Z,14.45
2023-04-17T22:48:28.238Z,13.30
2023-04-17T22:50:56.525Z,11.82
2023-04-17T22:53:23.811Z,11.07
2023-04-17T22:56:13.128Z,12.50
2023-04-17T22:58:40.724Z,13.32
2023-04-17T23:01:07.963Z,13.17
2023-04-17T23:03:35.756Z,12.25
2023-04-17T23:06:03.354Z,13.27
2023-04-17T23:08:31.077Z,14.47
2023-04-17T23:11:00.093Z,13.13
2023-04-17T23:13:28.238Z,12.65
2023-04-17T23:15:55.566Z,13.85
2023-04-17T23:18:23.178Z,14.20
2023-04-17T23:20:50.495Z,12.40
2023-04-17T23:23:20.708Z,12.82
2023-04-17T23:25:47.947Z,13.13
2023-04-17T23:28:15.222Z,13.43
2023-04-17T23:30:42.454Z,13.05
2023-04-17T23:33:09.827Z,13.80
2023-04-17T23:35:37.101Z,13.30
2023-04-17T23:38:04.460Z,13.50
2023-04-17T23:40:32.843Z,12.80
2023-04-17T23:45:27.205Z,12.77
2023-04-17T23:47:54.514Z,13.95
2023-04-17T23:50:21.908Z,14.40
2023-04-17T23:52:49.619Z,14.75
2023-04-17T23:55:16.889Z,15.00
2023-04-17T23:57:44.074Z,15.77
